sensor_id;sensor_type;location;lat;lon;timestamp;temperature;humidity
3925;DHT22;1977;52.274;10.518;2023-07-13T00:00:26;22.20;86.40
3925;DHT22;1977;52.274;10.518;2023-07-13T00:02:53;22.20;86.50
3925;DHT22;1977;52.274;10.518;2023-07-13T00:05:20;22.10;86.30
3925;DHT22;1977;52.274;10.518;2023-07-13T00:07:46;22.10;88.20
3925;DHT22;1977;52.274;10.518;2023-07-13T00:10:13;22.10;88.00
3925;DHT22;1977;52.274;10.518;2023-07-13T00:12:40;22.10;88.50
3925;DHT22;1977;52.274;10.518;2023-07-13T00:15:11;22.30;88.60
3925;DHT22;1977;52.274;10.518;2023-07-13T00:17:40;22.10;88.70
3925;DHT22;1977;52.274;10.518;2023-07-13T00:20:07;22.10;89.10
3925;DHT22;1977;52.274;10.518;2023-07-13T00:22:35;22.10;89.70
3925;DHT22;1977;52.274;10.518;2023-07-13T00:25:02;22.10;90.20
3925;DHT22;1977;52.274;10.518;2023-07-13T00:27:29;22.10;89.70
3925;DHT22;1977;52.274;10.518;2023-07-13T00:29:57;22.10;90.10
3925;DHT22;1977;52.274;10.518;2023-07-13T00:32:24;22.00;90.30
3925;DHT22;1977;52.274;10.518;2023-07-13T00:34:52;22.00;90.40
3925;DHT22;1977;52.274;10.518;2023-07-13T00:37:19;21.90;90.40
3925;DHT22;1977;52.274;10.518;2023-07-13T00:39:46;21.90;90.70
3925;DHT22;1977;52.274;10.518;2023-07-13T00:42:13;21.80;90.90
3925;DHT22;1977;52.274;10.518;2023-07-13T00:44:39;21.80;91.00
3925;DHT22;1977;52.274;10.518;2023-07-13T00:47:06;21.90;91.20
3925;DHT22;1977;52.274;10.518;2023-07-13T00:49:35;21.80;91.30
3925;DHT22;1977;52.274;10.518;2023-07-13T00:52:06;21.80;91.50
3925;DHT22;1977;52.274;10.518;2023-07-13T00:54:36;21.80;91.60
3925;DHT22;1977;52.274;10.518;2023-07-13T00:57:05;21.80;91.90
3925;DHT22;1977;52.274;10.518;2023-07-13T00:59:34;21.70;92.30
3925;DHT22;1977;52.274;10.518;2023-07-13T01:02:01;21.70;92.40
3925;DHT22;1977;52.274;10.518;2023-07-13T01:04:29;21.70;92.60
3925;DHT22;1977;52.274;10.518;2023-07-13T01:06:56;21.70;92.70
3925;DHT22;1977;52.274;10.518;2023-07-13T01:09:26;21.70;92.60
3925;DHT22;1977;52.274;10.518;2023-07-13T01:11:53;21.60;92.70
3925;DHT22;1977;52.274;10.518;2023-07-13T01:14:20;21.70;92.80
3925;DHT22;1977;52.274;10.518;2023-07-13T01:16:48;21.80;92.90
3925;DHT22;1977;52.274;10.518;2023-07-13T01:19:22;21.60;93.00
3925;DHT22;1977;52.274;10.518;2023-07-13T01:22:03;21.60;93.10
3925;DHT22;1977;52.274;10.518;2023-07-13T01:24:30;21.60;93.00
3925;DHT22;1977;52.274;10.518;2023-07-13T01:26:56;21.60;93.10
3925;DHT22;1977;52.274;10.518;2023-07-13T01:29:23;21.60;93.20
3925;DHT22;1977;52.274;10.518;2023-07-13T01:31:50;21.60;93.40
3925;DHT22;1977;52.274;10.518;2023-07-13T01:34:17;21.80;93.70
3925;DHT22;1977;52.274;10.518;2023-07-13T01:36:43;21.50;93.60
3925;DHT22;1977;52.274;10.518;2023-07-13T01:39:11;21.60;93.70
3925;DHT22;1977;52.274;10.518;2023-07-13T01:41:38;21.50;93.90
3925;DHT22;1977;52.274;10.518;2023-07-13T01:44:05;21.40;94.20
3925;DHT22;1977;52.274;10.518;2023-07-13T01:46:32;21.40;94.70
3925;DHT22;1977;52.274;10.518;2023-07-13T01:48:58;21.30;94.70
3925;DHT22;1977;52.274;10.518;2023-07-13T01:51:25;21.40;95.10
3925;DHT22;1977;52.274;10.518;2023-07-13T01:53:52;21.30;94.80
3925;DHT22;1977;52.274;10.518;2023-07-13T01:56:20;21.30;94.90
3925;DHT22;1977;52.274;10.518;2023-07-13T01:58:47;21.30;95.20
3925;DHT22;1977;52.274;10.518;2023-07-13T02:01:14;21.50;95.20
3925;DHT22;1977;52.274;10.518;2023-07-13T02:03:41;21.30;95.00
3925;DHT22;1977;52.274;10.518;2023-07-13T02:06:07;21.30;95.00
3925;DHT22;1977;52.274;10.518;2023-07-13T02:08:34;21.30;95.30
3925;DHT22;1977;52.274;10.518;2023-07-13T02:11:02;21.30;95.70
3925;DHT22;1977;52.274;10.518;2023-07-13T02:13:31;21.20;95.90
3925;DHT22;1977;52.274;10.518;2023-07-13T02:15:57;21.20;96.00
3925;DHT22;1977;52.274;10.518;2023-07-13T02:18:24;21.20;96.20
3925;DHT22;1977;52.274;10.518;2023-07-13T02:20:51;21.20;96.30
3925;DHT22;1977;52.274;10.518;2023-07-13T02:23:18;21.20;96.50
3925;DHT22;1977;52.274;10.518;2023-07-13T02:25:45;21.10;96.70
3925;DHT22;1977;52.274;10.518;2023-07-13T02:28:12;21.10;97.30
3925;DHT22;1977;52.274;10.518;2023-07-13T02:30:40;21.10;97.40
3925;DHT22;1977;52.274;10.518;2023-07-13T02:33:07;21.20;97.70
3925;DHT22;1977;52.274;10.518;2023-07-13T02:35:33;21.00;97.90
3925;DHT22;1977;52.274;10.518;2023-07-13T02:38:00;21.00;98.00
3925;DHT22;1977;52.274;10.518;2023-07-13T02:40:27;21.00;97.70
3925;DHT22;1977;52.274;10.518;2023-07-13T02:42:54;21.00;97.90
3925;DHT22;1977;52.274;10.518;2023-07-13T02:45:20;21.00;97.70
3925;DHT22;1977;52.274;10.518;2023-07-13T02:47:48;21.00;97.90
3925;DHT22;1977;52.274;10.518;2023-07-13T02:50:15;21.00;97.90
3925;DHT22;1977;52.274;10.518;2023-07-13T02:52:42;21.00;97.70
3925;DHT22;1977;52.274;10.518;2023-07-13T02:55:09;21.00;97.50
3925;DHT22;1977;52.274;10.518;2023-07-13T02:57:36;21.10;97.60
3925;DHT22;1977;52.274;10.518;2023-07-13T03:00:04;21.10;97.70
3925;DHT22;1977;52.274;10.518;2023-07-13T03:02:31;21.00;97.70
3925;DHT22;1977;52.274;10.518;2023-07-13T03:05:00;21.10;97.70
3925;DHT22;1977;52.274;10.518;2023-07-13T03:07:27;21.20;97.70
3925;DHT22;1977;52.274;10.518;2023-07-13T03:09:54;21.20;97.60
3925;DHT22;1977;52.274;10.518;2023-07-13T03:12:22;21.10;97.70
3925;DHT22;1977;52.274;10.518;2023-07-13T03:14:48;21.10;97.20
3925;DHT22;1977;52.274;10.518;2023-07-13T03:17:15;21.30;97.00
3925;DHT22;1977;52.274;10.518;2023-07-13T03:19:42;21.20;97.50
3925;DHT22;1977;52.274;10.518;2023-07-13T03:22:10;21.20;96.80
3925;DHT22;1977;52.274;10.518;2023-07-13T03:24:37;21.20;96.70
3925;DHT22;1977;52.274;10.518;2023-07-13T03:27:05;21.10;96.70
3925;DHT22;1977;52.274;10.518;2023-07-13T03:29:32;21.00;96.90
3925;DHT22;1977;52.274;10.518;2023-07-13T03:31:59;21.00;97.00
3925;DHT22;1977;52.274;10.518;2023-07-13T03:34:26;21.00;97.00
3925;DHT22;1977;52.274;10.518;2023-07-13T03:36:54;20.90;97.10
3925;DHT22;1977;52.274;10.518;2023-07-13T03:39:22;20.90;97.40
3925;DHT22;1977;52.274;10.518;2023-07-13T03:41:49;21.10;97.40
3925;DHT22;1977;52.274;10.518;2023-07-13T03:44:17;20.90;97.10
3925;DHT22;1977;52.274;10.518;2023-07-13T03:46:44;20.90;97.20
3925;DHT22;1977;52.274;10.518;2023-07-13T03:49:11;20.90;97.00
3925;DHT22;1977;52.274;10.518;2023-07-13T03:51:38;20.90;97.10
3925;DHT22;1977;52.274;10.518;2023-07-13T03:54:05;20.80;97.10
3925;DHT22;1977;52.274;10.518;2023-07-13T03:56:33;20.80;97.20
3925;DHT22;1977;52.274;10.518;2023-07-13T03:59:00;20.80;97.20
3925;DHT22;1977;52.274;10.518;2023-07-13T04:01:27;20.80;97.20
3925;DHT22;1977;52.274;10.518;2023-07-13T04:03:54;20.80;97.20
3925;DHT22;1977;52.274;10.518;2023-07-13T04:06:23;20.80;97.20
3925;DHT22;1977;52.274;10.518;2023-07-13T04:08:51;20.70;97.30
3925;DHT22;1977;52.274;10.518;2023-07-13T04:11:19;20.80;97.40
3925;DHT22;1977;52.274;10.518;2023-07-13T04:13:48;20.80;97.10
3925;DHT22;1977;52.274;10.518;2023-07-13T04:16:16;20.80;97.30
3925;DHT22;1977;52.274;10.518;2023-07-13T04:18:44;20.70;97.30
3925;DHT22;1977;52.274;10.518;2023-07-13T04:21:12;20.70;97.40
3925;DHT22;1977;52.274;10.518;2023-07-13T04:23:39;20.70;97.30
3925;DHT22;1977;52.274;10.518;2023-07-13T04:26:06;20.90;97.30
3925;DHT22;1977;52.274;10.518;2023-07-13T04:28:33;20.70;97.30
3925;DHT22;1977;52.274;10.518;2023-07-13T04:31:02;20.70;97.30
3925;DHT22;1977;52.274;10.518;2023-07-13T04:33:29;20.70;97.20
3925;DHT22;1977;52.274;10.518;2023-07-13T04:35:56;20.70;97.00
3925;DHT22;1977;52.274;10.518;2023-07-13T04:38:25;20.90;97.10
3925;DHT22;1977;52.274;10.518;2023-07-13T04:40:54;20.70;97.10
3925;DHT22;1977;52.274;10.518;2023-07-13T04:43:21;20.80;97.30
3925;DHT22;1977;52.274;10.518;2023-07-13T04:45:47;20.80;97.20
3925;DHT22;1977;52.274;10.518;2023-07-13T04:48:16;20.80;97.10
3925;DHT22;1977;52.274;10.518;2023-07-13T04:50:42;20.80;97.00
3925;DHT22;1977;52.274;10.518;2023-07-13T04:53:09;20.80;97.00
3925;DHT22;1977;52.274;10.518;2023-07-13T04:55:36;20.80;96.80
3925;DHT22;1977;52.274;10.518;2023-07-13T04:58:04;20.90;96.90
3925;DHT22;1977;52.274;10.518;2023-07-13T05:00:31;20.90;96.60
3925;DHT22;1977;52.274;10.518;2023-07-13T05:02:58;21.10;96.90
3925;DHT22;1977;52.274;10.518;2023-07-13T05:05:26;21.20;96.60
3925;DHT22;1977;52.274;10.518;2023-07-13T05:07:54;21.60;96.30
3925;DHT22;1977;52.274;10.518;2023-07-13T05:10:21;21.60;95.90
3925;DHT22;1977;52.274;10.518;2023-07-13T05:12:48;21.90;95.90
3925;DHT22;1977;52.274;10.518;2023-07-13T05:15:15;21.90;95.50
3925;DHT22;1977;52.274;10.518;2023-07-13T05:17:46;22.10;95.10
3925;DHT22;1977;52.274;10.518;2023-07-13T05:20:13;22.40;94.20
3925;DHT22;1977;52.274;10.518;2023-07-13T05:22:41;22.30;94.00
3925;DHT22;1977;52.274;10.518;2023-07-13T05:25:08;22.30;93.90
3925;DHT22;1977;52.274;10.518;2023-07-13T05:27:35;22.10;93.70
3925;DHT22;1977;52.274;10.518;2023-07-13T05:30:03;22.10;94.00
3925;DHT22;1977;52.274;10.518;2023-07-13T05:32:30;22.00;94.20
3925;DHT22;1977;52.274;10.518;2023-07-13T05:34:57;21.90;94.60
3925;DHT22;1977;52.274;10.518;2023-07-13T05:37:24;21.90;94.60
3925;DHT22;1977;52.274;10.518;2023-07-13T05:39:52;21.90;94.60
3925;DHT22;1977;52.274;10.518;2023-07-13T05:42:19;21.90;94.50
3925;DHT22;1977;52.274;10.518;2023-07-13T05:44:45;21.90;94.40
3925;DHT22;1977;52.274;10.518;2023-07-13T05:47:12;22.00;94.50
3925;DHT22;1977;52.274;10.518;2023-07-13T05:49:40;22.10;94.30
3925;DHT22;1977;52.274;10.518;2023-07-13T05:52:07;22.10;94.30
3925;DHT22;1977;52.274;10.518;2023-07-13T05:54:34;22.10;94.50
3925;DHT22;1977;52.274;10.518;2023-07-13T05:57:02;22.10;94.20
3925;DHT22;1977;52.274;10.518;2023-07-13T05:59:29;22.30;94.30
3925;DHT22;1977;52.274;10.518;2023-07-13T06:01:56;22.40;94.00
3925;DHT22;1977;52.274;10.518;2023-07-13T06:04:23;22.50;94.00
3925;DHT22;1977;52.274;10.518;2023-07-13T06:06:50;22.70;93.30
3925;DHT22;1977;52.274;10.518;2023-07-13T06:09:16;23.00;93.20
3925;DHT22;1977;52.274;10.518;2023-07-13T06:11:43;23.00;92.90
3925;DHT22;1977;52.274;10.518;2023-07-13T06:14:11;23.10;92.90
3925;DHT22;1977;52.274;10.518;2023-07-13T06:16:40;23.20;92.50
3925;DHT22;1977;52.274;10.518;2023-07-13T06:19:07;23.20;92.30
3925;DHT22;1977;52.274;10.518;2023-07-13T06:21:34;23.20;92.20
3925;DHT22;1977;52.274;10.518;2023-07-13T06:24:01;23.20;92.20
3925;DHT22;1977;52.274;10.518;2023-07-13T06:26:27;23.40;92.40
3925;DHT22;1977;52.274;10.518;2023-07-13T06:28:55;23.20;92.40
3925;DHT22;1977;52.274;10.518;2023-07-13T06:31:23;23.30;92.50
3925;DHT22;1977;52.274;10.518;2023-07-13T06:33:50;23.30;92.40
3925;DHT22;1977;52.274;10.518;2023-07-13T06:36:17;23.40;92.20
3925;DHT22;1977;52.274;10.518;2023-07-13T06:38:43;23.50;91.90
3925;DHT22;1977;52.274;10.518;2023-07-13T06:41:12;23.60;91.60
3925;DHT22;1977;52.274;10.518;2023-07-13T06:43:38;23.70;91.40
3925;DHT22;1977;52.274;10.518;2023-07-13T06:46:05;23.80;91.30
3925;DHT22;1977;52.274;10.518;2023-07-13T06:48:34;23.90;91.20
3925;DHT22;1977;52.274;10.518;2023-07-13T06:51:02;24.00;91.00
3925;DHT22;1977;52.274;10.518;2023-07-13T06:53:29;24.10;90.80
3925;DHT22;1977;52.274;10.518;2023-07-13T06:55:55;24.10;90.80
3925;DHT22;1977;52.274;10.518;2023-07-13T06:58:22;24.20;90.80
3925;DHT22;1977;52.274;10.518;2023-07-13T07:00:50;24.40;90.80
3925;DHT22;1977;52.274;10.518;2023-07-13T07:03:17;24.50;90.40
3925;DHT22;1977;52.274;10.518;2023-07-13T07:05:45;24.60;90.20
3925;DHT22;1977;52.274;10.518;2023-07-13T07:08:12;24.70;89.30
3925;DHT22;1977;52.274;10.518;2023-07-13T07:10:40;24.70;89.70
3925;DHT22;1977;52.274;10.518;2023-07-13T07:13:07;24.80;88.20
3925;DHT22;1977;52.274;10.518;2023-07-13T07:15:35;25.10;87.70
3925;DHT22;1977;52.274;10.518;2023-07-13T07:18:02;25.10;87.10
3925;DHT22;1977;52.274;10.518;2023-07-13T07:20:29;25.10;86.00
3925;DHT22;1977;52.274;10.518;2023-07-13T07:22:57;25.10;85.60
3925;DHT22;1977;52.274;10.518;2023-07-13T07:25:24;25.00;85.30
3925;DHT22;1977;52.274;10.518;2023-07-13T07:27:51;25.00;84.70
3925;DHT22;1977;52.274;10.518;2023-07-13T07:30:17;24.90;83.70
3925;DHT22;1977;52.274;10.518;2023-07-13T07:32:44;24.80;83.50
3925;DHT22;1977;52.274;10.518;2023-07-13T07:35:11;24.90;83.60
3925;DHT22;1977;52.274;10.518;2023-07-13T07:37:38;24.80;84.40
3925;DHT22;1977;52.274;10.518;2023-07-13T07:40:07;24.90;84.30
3925;DHT22;1977;52.274;10.518;2023-07-13T07:42:34;25.20;83.80
3925;DHT22;1977;52.274;10.518;2023-07-13T07:45:01;25.40;83.20
3925;DHT22;1977;52.274;10.518;2023-07-13T07:47:28;25.70;82.60
3925;DHT22;1977;52.274;10.518;2023-07-13T07:49:55;25.90;82.90
3925;DHT22;1977;52.274;10.518;2023-07-13T07:52:22;26.30;81.30
3925;DHT22;1977;52.274;10.518;2023-07-13T07:54:49;26.70;81.00
3925;DHT22;1977;52.274;10.518;2023-07-13T07:57:17;27.10;78.40
3925;DHT22;1977;52.274;10.518;2023-07-13T07:59:44;27.30;74.80
3925;DHT22;1977;52.274;10.518;2023-07-13T08:02:11;27.60;73.80
3925;DHT22;1977;52.274;10.518;2023-07-13T08:04:38;27.90;71.30
3925;DHT22;1977;52.274;10.518;2023-07-13T08:07:05;28.20;69.00
3925;DHT22;1977;52.274;10.518;2023-07-13T08:09:32;28.40;66.90
3925;DHT22;1977;52.274;10.518;2023-07-13T08:11:59;28.50;66.00
3925;DHT22;1977;52.274;10.518;2023-07-13T08:14:27;28.60;64.90
3925;DHT22;1977;52.274;10.518;2023-07-13T08:16:55;28.60;63.60
3925;DHT22;1977;52.274;10.518;2023-07-13T08:19:22;28.90;63.00
3925;DHT22;1977;52.274;10.518;2023-07-13T08:21:48;29.20;61.80
3925;DHT22;1977;52.274;10.518;2023-07-13T08:24:15;29.40;59.30
3925;DHT22;1977;52.274;10.518;2023-07-13T08:26:44;29.40;58.90
3925;DHT22;1977;52.274;10.518;2023-07-13T08:29:11;29.60;58.60
3925;DHT22;1977;52.274;10.518;2023-07-13T08:31:39;29.60;58.40
3925;DHT22;1977;52.274;10.518;2023-07-13T08:34:06;29.50;58.20
3925;DHT22;1977;52.274;10.518;2023-07-13T08:36:33;29.70;58.10
3925;DHT22;1977;52.274;10.518;2023-07-13T08:39:00;29.80;57.50
3925;DHT22;1977;52.274;10.518;2023-07-13T08:41:27;30.10;57.50
3925;DHT22;1977;52.274;10.518;2023-07-13T08:43:56;30.40;56.00
3925;DHT22;1977;52.274;10.518;2023-07-13T08:46:29;30.70;55.10
3925;DHT22;1977;52.274;10.518;2023-07-13T08:49:03;30.90;53.80
3925;DHT22;1977;52.274;10.518;2023-07-13T08:51:38;31.00;53.80
3925;DHT22;1977;52.274;10.518;2023-07-13T08:54:14;31.20;54.00
3925;DHT22;1977;52.274;10.518;2023-07-13T08:56:45;31.10;53.80
3925;DHT22;1977;52.274;10.518;2023-07-13T08:59:14;30.60;53.60
3925;DHT22;1977;52.274;10.518;2023-07-13T09:02:14;30.50;54.90
3925;DHT22;1977;52.274;10.518;2023-07-13T09:04:46;31.60;54.60
3925;DHT22;1977;52.274;10.518;2023-07-13T09:07:24;32.80;52.30
3925;DHT22;1977;52.274;10.518;2023-07-13T09:10:01;33.70;50.20
3925;DHT22;1977;52.274;10.518;2023-07-13T09:12:39;34.40;48.80
3925;DHT22;1977;52.274;10.518;2023-07-13T09:15:19;34.90;47.60
3925;DHT22;1977;52.274;10.518;2023-07-13T09:17:49;35.00;46.90
3925;DHT22;1977;52.274;10.518;2023-07-13T09:20:22;34.70;45.30
3925;DHT22;1977;52.274;10.518;2023-07-13T09:22:51;33.80;46.60
3925;DHT22;1977;52.274;10.518;2023-07-13T09:25:24;33.20;46.90
3925;DHT22;1977;52.274;10.518;2023-07-13T09:27:56;32.60;48.00
3925;DHT22;1977;52.274;10.518;2023-07-13T09:30:30;32.20;48.30
3925;DHT22;1977;52.274;10.518;2023-07-13T09:32:58;32.20;48.30
3925;DHT22;1977;52.274;10.518;2023-07-13T09:35:27;32.20;48.70
3925;DHT22;1977;52.274;10.518;2023-07-13T09:37:58;32.10;48.50
3925;DHT22;1977;52.274;10.518;2023-07-13T09:40:30;31.70;48.30
3925;DHT22;1977;52.274;10.518;2023-07-13T09:42:59;31.10;49.30
3925;DHT22;1977;52.274;10.518;2023-07-13T09:45:28;30.80;49.90
3925;DHT22;1977;52.274;10.518;2023-07-13T09:48:05;30.60;50.10
3925;DHT22;1977;52.274;10.518;2023-07-13T09:50:34;30.20;51.00
3925;DHT22;1977;52.274;10.518;2023-07-13T09:53:02;29.90;51.00
3925;DHT22;1977;52.274;10.518;2023-07-13T09:55:31;29.70;51.40
3925;DHT22;1977;52.274;10.518;2023-07-13T09:58:03;29.40;52.50
3925;DHT22;1977;52.274;10.518;2023-07-13T10:00:32;29.20;52.90
3925;DHT22;1977;52.274;10.518;2023-07-13T10:03:04;29.00;53.20
3925;DHT22;1977;52.274;10.518;2023-07-13T10:05:41;28.90;52.90
3925;DHT22;1977;52.274;10.518;2023-07-13T10:08:19;28.60;53.60
3925;DHT22;1977;52.274;10.518;2023-07-13T10:10:52;28.30;54.40
3925;DHT22;1977;52.274;10.518;2023-07-13T10:13:32;28.20;53.90
3925;DHT22;1977;52.274;10.518;2023-07-13T10:16:03;28.00;54.40
3925;DHT22;1977;52.274;10.518;2023-07-13T10:18:38;28.00;54.80
3925;DHT22;1977;52.274;10.518;2023-07-13T10:21:15;28.00;55.30
3925;DHT22;1977;52.274;10.518;2023-07-13T10:23:45;27.80;54.80
3925;DHT22;1977;52.274;10.518;2023-07-13T10:26:18;27.60;55.20
3925;DHT22;1977;52.274;10.518;2023-07-13T10:28:49;27.50;55.70
3925;DHT22;1977;52.274;10.518;2023-07-13T10:31:19;27.40;56.60
3925;DHT22;1977;52.274;10.518;2023-07-13T10:33:46;27.30;57.30
3925;DHT22;1977;52.274;10.518;2023-07-13T10:36:20;27.30;57.20
3925;DHT22;1977;52.274;10.518;2023-07-13T10:38:50;27.30;57.30
3925;DHT22;1977;52.274;10.518;2023-07-13T10:41:20;27.20;57.40
3925;DHT22;1977;52.274;10.518;2023-07-13T10:43:50;27.10;57.60
3925;DHT22;1977;52.274;10.518;2023-07-13T10:46:19;27.20;57.60
3925;DHT22;1977;52.274;10.518;2023-07-13T10:48:51;27.20;57.10
3925;DHT22;1977;52.274;10.518;2023-07-13T10:51:21;27.20;57.10
3925;DHT22;1977;52.274;10.518;2023-07-13T10:54:10;27.20;57.90
3925;DHT22;1977;52.274;10.518;2023-07-13T10:56:39;27.20;58.20
3925;DHT22;1977;52.274;10.518;2023-07-13T10:59:12;27.20;58.00
3925;DHT22;1977;52.274;10.518;2023-07-13T11:01:49;27.10;57.80
3925;DHT22;1977;52.274;10.518;2023-07-13T11:04:18;27.00;57.70
3925;DHT22;1977;52.274;10.518;2023-07-13T11:06:48;27.00;58.30
3925;DHT22;1977;52.274;10.518;2023-07-13T11:09:33;27.00;58.70
3925;DHT22;1977;52.274;10.518;2023-07-13T11:12:06;27.00;58.40
3925;DHT22;1977;52.274;10.518;2023-07-13T11:14:35;27.00;58.20
3925;DHT22;1977;52.274;10.518;2023-07-13T11:17:33;26.90;57.60
3925;DHT22;1977;52.274;10.518;2023-07-13T11:20:18;26.90;57.40
3925;DHT22;1977;52.274;10.518;2023-07-13T11:22:49;26.90;57.50
3925;DHT22;1977;52.274;10.518;2023-07-13T11:25:28;26.90;57.20
3925;DHT22;1977;52.274;10.518;2023-07-13T11:28:12;27.00;57.70
3925;DHT22;1977;52.274;10.518;2023-07-13T11:30:43;27.00;57.50
3925;DHT22;1977;52.274;10.518;2023-07-13T11:33:21;27.00;57.70
3925;DHT22;1977;52.274;10.518;2023-07-13T11:35:53;27.00;57.10
3925;DHT22;1977;52.274;10.518;2023-07-13T11:38:34;27.00;56.80
3925;DHT22;1977;52.274;10.518;2023-07-13T11:41:04;27.00;56.70
3925;DHT22;1977;52.274;10.518;2023-07-13T11:43:31;26.90;56.80
3925;DHT22;1977;52.274;10.518;2023-07-13T11:46:12;26.90;56.90
3925;DHT22;1977;52.274;10.518;2023-07-13T11:48:40;26.90;56.90
3925;DHT22;1977;52.274;10.518;2023-07-13T11:51:15;26.90;56.40
3925;DHT22;1977;52.274;10.518;2023-07-13T11:53:46;26.80;56.10
3925;DHT22;1977;52.274;10.518;2023-07-13T11:56:14;26.70;56.30
3925;DHT22;1977;52.274;10.518;2023-07-13T11:58:41;26.80;56.90
3925;DHT22;1977;52.274;10.518;2023-07-13T12:01:16;26.80;56.50
3925;DHT22;1977;52.274;10.518;2023-07-13T12:03:45;26.80;57.00
3925;DHT22;1977;52.274;10.518;2023-07-13T12:06:25;26.90;56.10
3925;DHT22;1977;52.274;10.518;2023-07-13T12:08:56;26.80;54.70
3925;DHT22;1977;52.274;10.518;2023-07-13T12:11:23;26.90;54.40
3925;DHT22;1977;52.274;10.518;2023-07-13T12:13:50;27.00;54.60
3925;DHT22;1977;52.274;10.518;2023-07-13T12:16:25;26.90;55.40
3925;DHT22;1977;52.274;10.518;2023-07-13T12:18:53;26.90;55.00
3925;DHT22;1977;52.274;10.518;2023-07-13T12:21:25;27.10;56.10
3925;DHT22;1977;52.274;10.518;2023-07-13T12:23:55;26.90;55.50
3925;DHT22;1977;52.274;10.518;2023-07-13T12:26:21;27.00;56.40
3925;DHT22;1977;52.274;10.518;2023-07-13T12:28:51;27.00;57.20
3925;DHT22;1977;52.274;10.518;2023-07-13T12:31:31;27.10;56.30
3925;DHT22;1977;52.274;10.518;2023-07-13T12:34:01;27.10;55.70
3925;DHT22;1977;52.274;10.518;2023-07-13T12:36:33;27.20;55.90
3925;DHT22;1977;52.274;10.518;2023-07-13T12:39:11;27.20;55.60
3925;DHT22;1977;52.274;10.518;2023-07-13T12:41:39;27.30;55.30
3925;DHT22;1977;52.274;10.518;2023-07-13T12:44:10;27.30;55.40
3925;DHT22;1977;52.274;10.518;2023-07-13T12:46:37;27.30;55.30
3925;DHT22;1977;52.274;10.518;2023-07-13T12:49:06;27.20;55.50
3925;DHT22;1977;52.274;10.518;2023-07-13T12:51:33;27.10;56.10
3925;DHT22;1977;52.274;10.518;2023-07-13T12:54:13;27.10;56.40
3925;DHT22;1977;52.274;10.518;2023-07-13T12:56:41;27.10;56.30
3925;DHT22;1977;52.274;10.518;2023-07-13T12:59:16;27.10;55.70
3925;DHT22;1977;52.274;10.518;2023-07-13T13:01:43;27.00;54.80
3925;DHT22;1977;52.274;10.518;2023-07-13T13:04:11;26.90;55.40
3925;DHT22;1977;52.274;10.518;2023-07-13T13:06:38;27.00;55.40
3925;DHT22;1977;52.274;10.518;2023-07-13T13:09:14;26.90;55.30
3925;DHT22;1977;52.274;10.518;2023-07-13T13:11:41;27.00;54.90
3925;DHT22;1977;52.274;10.518;2023-07-13T13:14:08;27.10;55.00
3925;DHT22;1977;52.274;10.518;2023-07-13T13:16:38;27.10;55.00
3925;DHT22;1977;52.274;10.518;2023-07-13T13:19:13;27.10;54.80
3925;DHT22;1977;52.274;10.518;2023-07-13T13:21:41;27.20;55.40
3925;DHT22;1977;52.274;10.518;2023-07-13T13:24:13;27.20;55.20
3925;DHT22;1977;52.274;10.518;2023-07-13T13:26:40;27.30;55.40
3925;DHT22;1977;52.274;10.518;2023-07-13T13:29:13;27.20;54.60
3925;DHT22;1977;52.274;10.518;2023-07-13T13:31:40;27.10;54.90
3925;DHT22;1977;52.274;10.518;2023-07-13T13:34:09;27.10;55.30
3925;DHT22;1977;52.274;10.518;2023-07-13T13:36:37;27.00;55.00
3925;DHT22;1977;52.274;10.518;2023-07-13T13:39:08;26.90;54.60
3925;DHT22;1977;52.274;10.518;2023-07-13T13:41:44;26.90;55.10
3925;DHT22;1977;52.274;10.518;2023-07-13T13:44:12;26.90;55.50
3925;DHT22;1977;52.274;10.518;2023-07-13T13:46:39;26.90;55.20
3925;DHT22;1977;52.274;10.518;2023-07-13T13:49:10;27.00;55.60
3925;DHT22;1977;52.274;10.518;2023-07-13T13:51:39;27.10;55.80
3925;DHT22;1977;52.274;10.518;2023-07-13T13:54:10;26.90;54.80
3925;DHT22;1977;52.274;10.518;2023-07-13T13:56:37;26.90;55.10
3925;DHT22;1977;52.274;10.518;2023-07-13T13:59:05;26.90;55.00
3925;DHT22;1977;52.274;10.518;2023-07-13T14:01:34;26.90;55.70
3925;DHT22;1977;52.274;10.518;2023-07-13T14:04:01;26.90;56.50
3925;DHT22;1977;52.274;10.518;2023-07-13T14:06:29;26.90;54.80
3925;DHT22;1977;52.274;10.518;2023-07-13T14:08:55;27.10;55.80
3925;DHT22;1977;52.274;10.518;2023-07-13T14:11:22;27.00;55.60
3925;DHT22;1977;52.274;10.518;2023-07-13T14:13:53;27.00;55.80
3925;DHT22;1977;52.274;10.518;2023-07-13T14:16:24;27.10;55.70
3925;DHT22;1977;52.274;10.518;2023-07-13T14:18:53;26.90;55.60
3925;DHT22;1977;52.274;10.518;2023-07-13T14:21:22;26.90;55.70
3925;DHT22;1977;52.274;10.518;2023-07-13T14:23:49;26.80;55.40
3925;DHT22;1977;52.274;10.518;2023-07-13T14:26:17;26.40;57.00
3925;DHT22;1977;52.274;10.518;2023-07-13T14:28:47;26.00;59.90
3925;DHT22;1977;52.274;10.518;2023-07-13T14:31:16;25.70;63.20
3925;DHT22;1977;52.274;10.518;2023-07-13T14:33:45;25.00;65.60
3925;DHT22;1977;52.274;10.518;2023-07-13T14:36:23;24.70;67.90
3925;DHT22;1977;52.274;10.518;2023-07-13T14:38:51;24.50;69.50
3925;DHT22;1977;52.274;10.518;2023-07-13T14:41:19;24.40;70.00
3925;DHT22;1977;52.274;10.518;2023-07-13T14:43:46;24.30;70.90
3925;DHT22;1977;52.274;10.518;2023-07-13T14:46:22;24.20;71.80
3925;DHT22;1977;52.274;10.518;2023-07-13T14:49:02;24.30;72.30
3925;DHT22;1977;52.274;10.518;2023-07-13T14:51:30;24.30;72.90
3925;DHT22;1977;52.274;10.518;2023-07-13T14:53:58;24.30;73.10
3925;DHT22;1977;52.274;10.518;2023-07-13T14:56:25;24.30;73.50
3925;DHT22;1977;52.274;10.518;2023-07-13T14:58:52;24.40;74.00
3925;DHT22;1977;52.274;10.518;2023-07-13T15:01:20;24.40;75.10
3925;DHT22;1977;52.274;10.518;2023-07-13T15:03:49;24.50;74.80
3925;DHT22;1977;52.274;10.518;2023-07-13T15:06:19;24.50;74.60
3925;DHT22;1977;52.274;10.518;2023-07-13T15:08:46;24.40;75.00
3925;DHT22;1977;52.274;10.518;2023-07-13T15:11:13;24.30;75.00
3925;DHT22;1977;52.274;10.518;2023-07-13T15:13:40;24.20;75.20
3925;DHT22;1977;52.274;10.518;2023-07-13T15:16:15;24.20;76.00
3925;DHT22;1977;52.274;10.518;2023-07-13T15:18:42;24.10;79.40
3925;DHT22;1977;52.274;10.518;2023-07-13T15:21:10;23.90;82.40
3925;DHT22;1977;52.274;10.518;2023-07-13T15:23:41;23.80;84.40
3925;DHT22;1977;52.274;10.518;2023-07-13T15:26:11;23.50;86.70
3925;DHT22;1977;52.274;10.518;2023-07-13T15:28:39;23.20;86.90
3925;DHT22;1977;52.274;10.518;2023-07-13T15:31:17;23.10;88.60
3925;DHT22;1977;52.274;10.518;2023-07-13T15:33:44;23.00;90.50
3925;DHT22;1977;52.274;10.518;2023-07-13T15:36:13;23.00;90.30
3925;DHT22;1977;52.274;10.518;2023-07-13T15:38:42;23.00;91.50
3925;DHT22;1977;52.274;10.518;2023-07-13T15:41:16;23.00;91.70
3925;DHT22;1977;52.274;10.518;2023-07-13T15:43:43;23.10;91.30
3925;DHT22;1977;52.274;10.518;2023-07-13T15:46:10;23.10;91.30
3925;DHT22;1977;52.274;10.518;2023-07-13T15:48:37;23.10;90.90
3925;DHT22;1977;52.274;10.518;2023-07-13T15:51:05;23.00;90.90
3925;DHT22;1977;52.274;10.518;2023-07-13T15:53:38;23.10;91.10
3925;DHT22;1977;52.274;10.518;2023-07-13T15:56:17;23.10;91.10